sensor_id;sensor_type;location;lat;lon;timestamp;pressure;altitude;pressure_sealevel;temperature;humidity
60099;BME280;62818;49.394;8.686;2023-04-05T00:00:16;101041.91;;;4.56;48.89
60099;BME280;62818;49.394;8.686;2023-04-05T00:01:18;101030.19;;;4.60;49.53
60099;BME280;62818;49.394;8.686;2023-04-05T00:02:19;101037.59;;;4.32;49.09
60099;BME280;62818;49.394;8.686;2023-04-05T00:03:20;101038.91;;;4.60;49.95
60099;BME280;62818;49.394;8.686;2023-04-05T00:04:21;101040.69;;;4.71;49.77
60099;BME280;62818;49.394;8.686;2023-04-05T00:05:22;101035.19;;;4.63;48.86
60099;BME280;62818;49.394;8.686;2023-04-05T00:06:29;101047.25;;;4.54;49.06
60099;BME280;62818;49.394;8.686;2023-04-05T00:07:30;101037.47;;;4.45;49.50
60099;BME280;62818;49.394;8.686;2023-04-05T00:08:33;101038.81;;;4.28;49.89
60099;BME280;62818;49.394;8.686;2023-04-05T00:09:33;101039.50;;;4.41;49.77
60099;BME280;62818;49.394;8.686;2023-04-05T00:10:35;101032.34;;;4.32;49.66
60099;BME280;62818;49.394;8.686;2023-04-05T00:11:36;101042.72;;;4.45;49.54
60099;BME280;62818;49.394;8.686;2023-04-05T00:12:37;101035.25;;;4.29;49.32
60099;BME280;62818;49.394;8.686;2023-04-05T00:13:37;101036.16;;;4.50;48.91
60099;BME280;62818;49.394;8.686;2023-04-05T00:14:38;101029.84;;;4.31;50.00
60099;BME280;62818;49.394;8.686;2023-04-05T00:15:38;101030.69;;;4.31;49.21
60099;BME280;62818;49.394;8.686;2023-04-05T00:16:39;101031.16;;;4.47;49.54
60099;BME280;62818;49.394;8.686;2023-04-05T00:17:40;101023.75;;;4.53;49.51
60099;BME280;62818;49.394;8.686;2023-04-05T00:18:41;101027.34;;;4.07;50.04
60099;BME280;62818;49.394;8.686;2023-04-05T00:19:48;101029.50;;;4.02;50.31
60099;BME280;62818;49.394;8.686;2023-04-05T00:20:56;101024.03;;;4.05;50.90
60099;BME280;62818;49.394;8.686;2023-04-05T00:21:56;101027.59;;;4.26;50.45
60099;BME280;62818;49.394;8.686;2023-04-05T00:22:57;101032.00;;;4.37;50.75
60099;BME280;62818;49.394;8.686;2023-04-05T00:23:59;101030.19;;;4.60;49.92
60099;BME280;62818;49.394;8.686;2023-04-05T00:24:59;101027.78;;;4.68;49.75
60099;BME280;62818;49.394;8.686;2023-04-05T00:26:00;101029.47;;;4.69;49.71
60099;BME280;62818;49.394;8.686;2023-04-05T00:27:00;101023.53;;;4.11;50.53
60099;BME280;62818;49.394;8.686;2023-04-05T00:28:01;101022.34;;;4.04;51.39
60099;BME280;62818;49.394;8.686;2023-04-05T00:29:01;101017.19;;;4.58;50.26
60099;BME280;62818;49.394;8.686;2023-04-05T00:30:02;101023.63;;;4.21;50.16
60099;BME280;62818;49.394;8.686;2023-04-05T00:31:04;101020.19;;;4.09;50.99
60099;BME280;62818;49.394;8.686;2023-04-05T00:32:04;101025.78;;;3.94;51.36
60099;BME280;62818;49.394;8.686;2023-04-05T00:33:05;101030.69;;;4.09;51.04
60099;BME280;62818;49.394;8.686;2023-04-05T00:34:05;101014.34;;;4.06;51.55
60099;BME280;62818;49.394;8.686;2023-04-05T00:35:08;101023.75;;;4.08;51.66
60099;BME280;62818;49.394;8.686;2023-04-05T00:36:16;101017.66;;;3.97;51.32
60099;BME280;62818;49.394;8.686;2023-04-05T00:37:18;101023.53;;;4.00;51.58
60099;BME280;62818;49.394;8.686;2023-04-05T00:38:20;101020.66;;;3.81;52.20
60099;BME280;62818;49.394;8.686;2023-04-05T00:39:20;101020.88;;;3.78;52.93
60099;BME280;62818;49.394;8.686;2023-04-05T00:40:21;101018.81;;;3.70;52.85
60099;BME280;62818;49.394;8.686;2023-04-05T00:41:22;101018.47;;;3.75;53.50
60099;BME280;62818;49.394;8.686;2023-04-05T00:42:23;101012.91;;;3.91;52.67
60099;BME280;62818;49.394;8.686;2023-04-05T00:43:23;101024.47;;;3.99;52.81
60099;BME280;62818;49.394;8.686;2023-04-05T00:44:24;101024.22;;;3.80;52.67
60099;BME280;62818;49.394;8.686;2023-04-05T00:45:25;101017.16;;;3.69;52.98
60099;BME280;62818;49.394;8.686;2023-04-05T00:46:26;101015.09;;;3.62;54.18
60099;BME280;62818;49.394;8.686;2023-04-05T00:47:27;101019.03;;;3.56;53.45
60099;BME280;62818;49.394;8.686;2023-04-05T00:48:28;101018.91;;;3.58;53.63
60099;BME280;62818;49.394;8.686;2023-04-05T00:49:29;101023.94;;;3.61;53.77
60099;BME280;62818;49.394;8.686;2023-04-05T00:50:32;101018.91;;;3.58;53.59
60099;BME280;62818;49.394;8.686;2023-04-05T00:51:34;101019.38;;;3.52;53.63
60099;BME280;62818;49.394;8.686;2023-04-05T00:52:35;101021.19;;;3.62;53.33
60099;BME280;62818;49.394;8.686;2023-04-05T00:53:43;101025.38;;;3.65;53.05
60099;BME280;62818;49.394;8.686;2023-04-05T00:54:44;101020.66;;;4.03;52.56
60099;BME280;62818;49.394;8.686;2023-04-05T00:55:48;101011.31;;;3.77;52.21
60099;BME280;62818;49.394;8.686;2023-04-05T00:56:51;101014.75;;;3.66;52.28
60099;BME280;62818;49.394;8.686;2023-04-05T00:57:55;101014.53;;;3.69;52.62
60099;BME280;62818;49.394;8.686;2023-04-05T00:58:55;101020.44;;;4.28;52.41
60099;BME280;62818;49.394;8.686;2023-04-05T01:00:00;101011.97;;;3.92;51.70
60099;BME280;62818;49.394;8.686;2023-04-05T01:02:27;101013.50;;;3.83;52.93
60099;BME280;62818;49.394;8.686;2023-04-05T01:03:34;101010.28;;;4.13;52.38
60099;BME280;62818;49.394;8.686;2023-04-05T01:04:40;101006.59;;;4.37;52.64
60099;BME280;62818;49.394;8.686;2023-04-05T01:07:09;101006.56;;;3.71;52.50
60099;BME280;62818;49.394;8.686;2023-04-05T01:08:35;101007.66;;;4.13;53.57
60099;BME280;62818;49.394;8.686;2023-04-05T01:09:55;101004.69;;;4.39;51.82
60099;BME280;62818;49.394;8.686;2023-04-05T01:10:59;101006.75;;;3.57;52.54
60099;BME280;62818;49.394;8.686;2023-04-05T01:12:08;101000.91;;;3.53;53.15
60099;BME280;62818;49.394;8.686;2023-04-05T01:13:11;101001.69;;;3.89;53.43
60099;BME280;62818;49.394;8.686;2023-04-05T01:14:11;101000.28;;;3.96;53.23
60099;BME280;62818;49.394;8.686;2023-04-05T01:15:12;101007.31;;;3.95;52.58
60099;BME280;62818;49.394;8.686;2023-04-05T01:16:13;101005.53;;;4.29;52.30
60099;BME280;62818;49.394;8.686;2023-04-05T01:17:14;101005.38;;;3.86;52.34
60099;BME280;62818;49.394;8.686;2023-04-05T01:18:21;101004.69;;;4.28;52.43
60099;BME280;62818;49.394;8.686;2023-04-05T01:19:27;101002.28;;;3.92;52.71
60099;BME280;62818;49.394;8.686;2023-04-05T01:20:33;101004.50;;;3.74;52.71
60099;BME280;62818;49.394;8.686;2023-04-05T01:22:00;101003.44;;;3.77;52.01
60099;BME280;62818;49.394;8.686;2023-04-05T01:24:50;101006.56;;;3.82;51.46
60099;BME280;62818;49.394;8.686;2023-04-05T01:27:35;100994.88;;;3.75;51.76
60099;BME280;62818;49.394;8.686;2023-04-05T01:28:58;101001.44;;;3.69;51.78
60099;BME280;62818;49.394;8.686;2023-04-05T01:30:35;100994.88;;;3.75;51.34
60099;BME280;62818;49.394;8.686;2023-04-05T01:32:18;100992.00;;;3.56;52.14
60099;BME280;62818;49.394;8.686;2023-04-05T01:33:39;100989.19;;;3.81;51.44
60099;BME280;62818;49.394;8.686;2023-04-05T01:36:34;100995.97;;;3.38;51.80
60099;BME280;62818;49.394;8.686;2023-04-05T01:37:39;101002.16;;;3.71;51.85
60099;BME280;62818;49.394;8.686;2023-04-05T01:38:48;100995.28;;;3.47;51.98
60099;BME280;62818;49.394;8.686;2023-04-05T01:39:50;100989.50;;;3.65;51.92
60099;BME280;62818;49.394;8.686;2023-04-05T01:40:52;100992.25;;;3.75;51.89
60099;BME280;62818;49.394;8.686;2023-04-05T01:42:00;100990.97;;;3.92;52.46
60099;BME280;62818;49.394;8.686;2023-04-05T01:43:01;100989.16;;;3.92;51.25
60099;BME280;62818;49.394;8.686;2023-04-05T01:44:02;100992.81;;;3.56;51.30
60099;BME280;62818;49.394;8.686;2023-04-05T01:45:03;100992.38;;;3.73;51.56
60099;BME280;62818;49.394;8.686;2023-04-05T01:46:03;100990.09;;;3.69;51.33
60099;BME280;62818;49.394;8.686;2023-04-05T01:47:04;100993.75;;;3.55;52.50
60099;BME280;62818;49.394;8.686;2023-04-05T01:48:05;100995.13;;;3.72;51.52
60099;BME280;62818;49.394;8.686;2023-04-05T01:49:06;100998.31;;;3.64;51.06
60099;BME280;62818;49.394;8.686;2023-04-05T01:50:07;100996.50;;;3.54;51.74
60099;BME280;62818;49.394;8.686;2023-04-05T01:51:08;100991.28;;;3.54;51.45
60099;BME280;62818;49.394;8.686;2023-04-05T01:52:08;100994.59;;;3.56;51.05
60099;BME280;62818;49.394;8.686;2023-04-05T01:53:09;100989.63;;;3.64;51.88
60099;BME280;62818;49.394;8.686;2023-04-05T01:54:09;100990.31;;;3.66;51.34
60099;BME280;62818;49.394;8.686;2023-04-05T01:55:10;100986.25;;;3.51;51.54
60099;BME280;62818;49.394;8.686;2023-04-05T01:56:10;100986.56;;;3.35;52.02
60099;BME280;62818;49.394;8.686;2023-04-05T01:57:11;100990.59;;;3.63;52.05
60099;BME280;62818;49.394;8.686;2023-04-05T01:58:11;100987.94;;;3.52;52.32
60099;BME280;62818;49.394;8.686;2023-04-05T01:59:12;100988.41;;;3.46;51.27
60099;BME280;62818;49.394;8.686;2023-04-05T02:00:12;100991.63;;;3.49;51.65
60099;BME280;62818;49.394;8.686;2023-04-05T02:01:13;100982.44;;;3.55;51.36
60099;BME280;62818;49.394;8.686;2023-04-05T02:02:14;100983.66;;;3.62;52.02
60099;BME280;62818;49.394;8.686;2023-04-05T02:03:14;100982.22;;;3.58;51.18
60099;BME280;62818;49.394;8.686;2023-04-05T02:04:18;100976.47;;;3.53;51.69
60099;BME280;62818;49.394;8.686;2023-04-05T02:05:18;100989.91;;;3.37;52.30
60099;BME280;62818;49.394;8.686;2023-04-05T02:06:19;100975.41;;;3.44;52.26
60099;BME280;62818;49.394;8.686;2023-04-05T02:07:19;100982.09;;;3.59;51.94
60099;BME280;62818;49.394;8.686;2023-04-05T02:08:20;100975.41;;;3.55;51.39
60099;BME280;62818;49.394;8.686;2023-04-05T02:09:20;100971.00;;;3.45;51.61
60099;BME280;62818;49.394;8.686;2023-04-05T02:10:21;100974.56;;;3.44;51.57
60099;BME280;62818;49.394;8.686;2023-04-05T02:11:22;100968.03;;;3.49;51.23
60099;BME280;62818;49.394;8.686;2023-04-05T02:12:22;100964.69;;;3.47;50.86
60099;BME280;62818;49.394;8.686;2023-04-05T02:13:23;100964.69;;;3.47;50.82
60099;BME280;62818;49.394;8.686;2023-04-05T02:14:25;100963.63;;;3.50;50.55
60099;BME280;62818;49.394;8.686;2023-04-05T02:15:25;100968.19;;;3.59;50.45
60099;BME280;62818;49.394;8.686;2023-04-05T02:16:26;100968.88;;;3.50;51.34
60099;BME280;62818;49.394;8.686;2023-04-05T02:17:26;100956.13;;;3.45;51.34
60099;BME280;62818;49.394;8.686;2023-04-05T02:18:33;100967.66;;;3.43;51.52
60099;BME280;62818;49.394;8.686;2023-04-05T02:19:34;100959.47;;;3.58;50.71
60099;BME280;62818;49.394;8.686;2023-04-05T02:20:39;100968.16;;;3.48;50.69
60099;BME280;62818;49.394;8.686;2023-04-05T02:21:40;100966.97;;;3.52;50.81
60099;BME280;62818;49.394;8.686;2023-04-05T02:22:41;100965.53;;;3.48;50.62
60099;BME280;62818;49.394;8.686;2023-04-05T02:23:44;100966.03;;;3.64;51.08
60099;BME280;62818;49.394;8.686;2023-04-05T02:24:44;100966.69;;;3.44;51.20
60099;BME280;62818;49.394;8.686;2023-04-05T02:25:45;100970.06;;;3.46;51.01
60099;BME280;62818;49.394;8.686;2023-04-05T02:26:46;100958.06;;;3.65;50.70
60099;BME280;62818;49.394;8.686;2023-04-05T02:27:47;100967.19;;;3.49;50.74
60099;BME280;62818;49.394;8.686;2023-04-05T02:28:48;100959.94;;;3.52;50.42
60099;BME280;62818;49.394;8.686;2023-04-05T02:29:48;100958.75;;;3.56;50.00
60099;BME280;62818;49.394;8.686;2023-04-05T02:30:49;100969.22;;;3.45;51.02
60099;BME280;62818;49.394;8.686;2023-04-05T02:31:49;100966.34;;;3.48;50.83
60099;BME280;62818;49.394;8.686;2023-04-05T02:32:50;100959.38;;;3.82;51.05
60099;BME280;62818;49.394;8.686;2023-04-05T02:33:50;100967.09;;;3.61;50.44
60099;BME280;62818;49.394;8.686;2023-04-05T02:34:51;100966.72;;;3.55;50.82
60099;BME280;62818;49.394;8.686;2023-04-05T02:35:52;100972.22;;;3.52;51.28
60099;BME280;62818;49.394;8.686;2023-04-05T02:36:53;100973.50;;;3.46;50.79
60099;BME280;62818;49.394;8.686;2023-04-05T02:37:53;100961.72;;;3.52;50.32
60099;BME280;62818;49.394;8.686;2023-04-05T02:38:55;100965.78;;;3.56;50.73
60099;BME280;62818;49.394;8.686;2023-04-05T02:39:56;100968.03;;;3.49;50.74
60099;BME280;62818;49.394;8.686;2023-04-05T02:40:56;100963.16;;;3.56;50.24
60099;BME280;62818;49.394;8.686;2023-04-05T02:41:57;100961.41;;;3.67;49.98
60099;BME280;62818;49.394;8.686;2023-04-05T02:42:58;100968.16;;;3.48;50.21
60099;BME280;62818;49.394;8.686;2023-04-05T02:43:58;100975.53;;;3.54;50.41
60099;BME280;62818;49.394;8.686;2023-04-05T02:44:59;100962.94;;;3.59;50.41
60099;BME280;62818;49.394;8.686;2023-04-05T02:46:00;100975.53;;;3.54;50.57
60099;BME280;62818;49.394;8.686;2023-04-05T02:47:00;100977.19;;;3.55;50.49
60099;BME280;62818;49.394;8.686;2023-04-05T02:48:01;100972.44;;;3.60;50.61
60099;BME280;62818;49.394;8.686;2023-04-05T02:49:01;100968.19;;;3.59;50.32
60099;BME280;62818;49.394;8.686;2023-04-05T02:50:02;100977.22;;;3.66;50.23
60099;BME280;62818;49.394;8.686;2023-04-05T02:51:03;100964.13;;;3.66;50.55
60099;BME280;62818;49.394;8.686;2023-04-05T02:52:03;100970.53;;;3.62;50.58
60099;BME280;62818;49.394;8.686;2023-04-05T02:53:04;100972.22;;;3.52;50.57
60099;BME280;62818;49.394;8.686;2023-04-05T02:54:04;100963.78;;;3.82;50.58
60099;BME280;62818;49.394;8.686;2023-04-05T02:55:05;100965.78;;;3.67;50.60
60099;BME280;62818;49.394;8.686;2023-04-05T02:56:06;100964.97;;;3.78;50.86
60099;BME280;62818;49.394;8.686;2023-04-05T02:57:07;100972.38;;;4.06;49.87
60099;BME280;62818;49.394;8.686;2023-04-05T02:58:10;100975.59;;;3.98;49.81
60099;BME280;62818;49.394;8.686;2023-04-05T02:59:13;100971.78;;;3.80;49.61
60099;BME280;62818;49.394;8.686;2023-04-05T03:00:15;100972.84;;;3.89;49.76
60099;BME280;62818;49.394;8.686;2023-04-05T03:01:16;100959.13;;;3.63;50.06
60099;BME280;62818;49.394;8.686;2023-04-05T03:02:16;100964.72;;;3.69;50.35
60099;BME280;62818;49.394;8.686;2023-04-05T03:03:18;100961.97;;;3.71;51.52
60099;BME280;62818;49.394;8.686;2023-04-05T03:04:22;100965.09;;;3.19;53.85
60099;BME280;62818;49.394;8.686;2023-04-05T03:05:25;100954.56;;;3.54;54.03
60099;BME280;62818;49.394;8.686;2023-04-05T03:06:26;100963.34;;;3.42;54.26
60099;BME280;62818;49.394;8.686;2023-04-05T03:07:26;100960.75;;;3.53;54.27
60099;BME280;62818;49.394;8.686;2023-04-05T03:08:27;100958.88;;;2.85;55.53
60099;BME280;62818;49.394;8.686;2023-04-05T03:09:28;100968.72;;;2.58;57.00
60099;BME280;62818;49.394;8.686;2023-04-05T03:10:32;100958.34;;;2.93;57.70
60099;BME280;62818;49.394;8.686;2023-04-05T03:11:35;100946.78;;;2.48;58.55
60099;BME280;62818;49.394;8.686;2023-04-05T03:12:35;100946.59;;;2.39;59.36
60099;BME280;62818;49.394;8.686;2023-04-05T03:13:36;100955.75;;;2.33;59.56
60099;BME280;62818;49.394;8.686;2023-04-05T03:14:37;100951.78;;;2.51;59.66
60099;BME280;62818;49.394;8.686;2023-04-05T03:15:38;100947.34;;;2.41;60.89
60099;BME280;62818;49.394;8.686;2023-04-05T03:16:38;100954.25;;;2.65;60.87
60099;BME280;62818;49.394;8.686;2023-04-05T03:17:39;100949.69;;;3.04;59.88
60099;BME280;62818;49.394;8.686;2023-04-05T03:18:43;100952.72;;;2.97;59.97
60099;BME280;62818;49.394;8.686;2023-04-05T03:19:43;100950.50;;;3.04;60.47
60099;BME280;62818;49.394;8.686;2023-04-05T03:20:46;100943.44;;;2.93;59.64
60099;BME280;62818;49.394;8.686;2023-04-05T03:21:49;100952.63;;;2.52;61.06
60099;BME280;62818;49.394;8.686;2023-04-05T03:22:49;100955.28;;;2.75;60.97
60099;BME280;62818;49.394;8.686;2023-04-05T03:23:50;100952.78;;;3.09;60.23
60099;BME280;62818;49.394;8.686;2023-04-05T03:24:50;100949.72;;;3.15;60.78
60099;BME280;62818;49.394;8.686;2023-04-05T03:26:02;100952.34;;;3.15;59.82
60099;BME280;62818;49.394;8.686;2023-04-05T03:27:02;100944.88;;;3.32;60.19
60099;BME280;62818;49.394;8.686;2023-04-05T03:28:05;100948.88;;;3.60;59.94
60099;BME280;62818;49.394;8.686;2023-04-05T03:29:07;100944.47;;;3.15;60.05
60099;BME280;62818;49.394;8.686;2023-04-05T03:30:08;100946.91;;;2.70;61.15
60099;BME280;62818;49.394;8.686;2023-04-05T03:31:10;100949.50;;;3.29;60.53
60099;BME280;62818;49.394;8.686;2023-04-05T03:32:10;100938.84;;;3.43;59.94
60099;BME280;62818;49.394;8.686;2023-04-05T03:33:13;100946.66;;;3.32;60.11
60099;BME280;62818;49.394;8.686;2023-04-05T03:34:13;100944.09;;;2.84;60.48
60099;BME280;62818;49.394;8.686;2023-04-05T03:35:13;100946.72;;;2.84;61.36
60099;BME280;62818;49.394;8.686;2023-04-05T03:36:15;100948.06;;;2.90;61.00
60099;BME280;62818;49.394;8.686;2023-04-05T03:37:16;100951.56;;;3.36;60.41
60099;BME280;62818;49.394;8.686;2023-04-05T03:38:17;100953.38;;;2.77;60.83
60099;BME280;62818;49.394;8.686;2023-04-05T03:39:17;100953.81;;;2.71;61.89
60099;BME280;62818;49.394;8.686;2023-04-05T03:40:18;100942.09;;;3.12;61.64
60099;BME280;62818;49.394;8.686;2023-04-05T03:41:18;100941.31;;;2.98;61.43
60099;BME280;62818;49.394;8.686;2023-04-05T03:42:19;100942.38;;;3.31;61.41
60099;BME280;62818;49.394;8.686;2023-04-05T03:43:20;100944.03;;;3.32;60.45
60099;BME280;62818;49.394;8.686;2023-04-05T03:44:20;100945.72;;;2.98;61.26
60099;BME280;62818;49.394;8.686;2023-04-05T03:45:21;100954.19;;;2.54;62.83
60099;BME280;62818;49.394;8.686;2023-04-05T03:46:21;100951.09;;;2.73;63.13
60099;BME280;62818;49.394;8.686;2023-04-05T03:47:22;100950.34;;;2.94;63.27
60099;BME280;62818;49.394;8.686;2023-04-05T03:48:22;100950.13;;;2.74;63.40
60099;BME280;62818;49.394;8.686;2023-04-05T03:49:23;100948.59;;;2.95;62.30
60099;BME280;62818;49.394;8.686;2023-04-05T03:50:24;100949.94;;;2.53;63.46
60099;BME280;62818;49.394;8.686;2023-04-05T03:51:28;100945.88;;;3.08;62.43
60099;BME280;62818;49.394;8.686;2023-04-05T03:52:28;100946.53;;;2.64;63.41
60099;BME280;62818;49.394;8.686;2023-04-05T03:53:29;100951.50;;;2.79;63.31
60099;BME280;62818;49.394;8.686;2023-04-05T03:54:29;100943.47;;;2.46;64.02
60099;BME280;62818;49.394;8.686;2023-04-05T03:55:30;100947.53;;;2.50;64.26
60099;BME280;62818;49.394;8.686;2023-04-05T03:56:31;100943.84;;;2.53;64.06
60099;BME280;62818;49.394;8.686;2023-04-05T03:57:32;100944.84;;;2.39;64.97
60099;BME280;62818;49.394;8.686;2023-04-05T03:58:33;100946.47;;;2.76;65.13
60099;BME280;62818;49.394;8.686;2023-04-05T03:59:34;100944.56;;;2.78;63.75
60099;BME280;62818;49.394;8.686;2023-04-05T04:00:34;100935.81;;;2.43;65.10
60099;BME280;62818;49.394;8.686;2023-04-05T04:01:35;100939.00;;;2.23;65.38
60099;BME280;62818;49.394;8.686;2023-04-05T04:02:36;100939.16;;;2.45;65.66
60099;BME280;62818;49.394;8.686;2023-04-05T04:03:36;100938.50;;;2.54;65.37
60099;BME280;62818;49.394;8.686;2023-04-05T04:04:36;100935.63;;;2.34;65.52
60099;BME280;62818;49.394;8.686;2023-04-05T04:05:37;100943.53;;;2.57;66.51
60099;BME280;62818;49.394;8.686;2023-04-05T04:06:38;100930.84;;;2.28;65.98
60099;BME280;62818;49.394;8.686;2023-04-05T04:07:39;100937.69;;;2.05;67.38
60099;BME280;62818;49.394;8.686;2023-04-05T04:08:40;100937.69;;;2.17;68.21
60099;BME280;62818;49.394;8.686;2023-04-05T04:09:41;100940.06;;;2.33;67.89
60099;BME280;62818;49.394;8.686;2023-04-05T04:10:41;100935.88;;;2.31;67.81
60099;BME280;62818;49.394;8.686;2023-04-05T04:11:42;100930.28;;;2.11;68.53
60099;BME280;62818;49.394;8.686;2023-04-05T04:12:42;100934.16;;;2.42;68.40
60099;BME280;62818;49.394;8.686;2023-04-05T04:13:44;100939.06;;;2.47;68.23
60099;BME280;62818;49.394;8.686;2023-04-05T04:14:44;100941.09;;;2.31;68.00
60099;BME280;62818;49.394;8.686;2023-04-05T04:15:45;100939.53;;;2.28;68.67
60099;BME280;62818;49.394;8.686;2023-04-05T04:16:45;100949.03;;;2.65;68.01
60099;BME280;62818;49.394;8.686;2023-04-05T04:17:46;100946.25;;;2.79;66.74
60099;BME280;62818;49.394;8.686;2023-04-05T04:18:46;100946.91;;;2.10;68.86
60099;BME280;62818;49.394;8.686;2023-04-05T04:19:47;100949.22;;;1.90;70.10
60099;BME280;62818;49.394;8.686;2023-04-05T04:20:47;100949.34;;;2.37;68.83
60099;BME280;62818;49.394;8.686;2023-04-05T04:21:50;100947.56;;;1.89;69.54
60099;BME280;62818;49.394;8.686;2023-04-05T04:22:51;100944.22;;;1.49;70.95
60099;BME280;62818;49.394;8.686;2023-04-05T04:23:53;100944.84;;;1.90;71.59
60099;BME280;62818;49.394;8.686;2023-04-05T04:24:54;100945.75;;;2.02;70.55
60099;BME280;62818;49.394;8.686;2023-04-05T04:25:55;100951.25;;;2.35;68.47
60099;BME280;62818;49.394;8.686;2023-04-05T04:26:55;100939.66;;;2.50;68.58
60099;BME280;62818;49.394;8.686;2023-04-05T04:27:56;100950.34;;;2.11;68.54
60099;BME280;62818;49.394;8.686;2023-04-05T04:28:57;100951.56;;;1.69;70.21
60099;BME280;62818;49.394;8.686;2023-04-05T04:29:58;100940.78;;;1.74;71.04
60099;BME280;62818;49.394;8.686;2023-04-05T04:31:03;100944.69;;;2.17;69.56
60099;BME280;62818;49.394;8.686;2023-04-05T04:32:04;100946.22;;;2.32;68.91
60099;BME280;62818;49.394;8.686;2023-04-05T04:33:05;100944.13;;;2.61;67.33
60099;BME280;62818;49.394;8.686;2023-04-05T04:34:07;100946.69;;;2.01;67.99
60099;BME280;62818;49.394;8.686;2023-04-05T04:35:09;100946.22;;;1.96;69.96
60099;BME280;62818;49.394;8.686;2023-04-05T04:36:10;100944.50;;;1.95;70.29
60099;BME280;62818;49.394;8.686;2023-04-05T04:37:13;100939.97;;;2.09;70.05
60099;BME280;62818;49.394;8.686;2023-04-05T04:38:17;100933.66;;;2.37;69.48
60099;BME280;62818;49.394;8.686;2023-04-05T04:39:20;100932.41;;;2.54;67.67
60099;BME280;62818;49.394;8.686;2023-04-05T04:40:33;100940.19;;;2.55;68.13
60099;BME280;62818;49.394;8.686;2023-04-05T04:41:38;100937.00;;;2.63;66.96
60099;BME280;62818;49.394;8.686;2023-04-05T04:42:46;100933.78;;;1.87;68.64
60099;BME280;62818;49.394;8.686;2023-04-05T04:43:46;100941.31;;;1.66;70.49
60099;BME280;62818;49.394;8.686;2023-04-05T04:44:47;100932.53;;;1.55;71.26
60099;BME280;62818;49.394;8.686;2023-04-05T04:45:48;100934.59;;;1.37;72.11
60099;BME280;62818;49.394;8.686;2023-04-05T04:46:51;100941.09;;;1.31;72.59
60099;BME280;62818;49.394;8.686;2023-04-05T04:47:53;100935.56;;;1.74;72.54
60099;BME280;62818;49.394;8.686;2023-04-05T04:48:54;100937.13;;;1.38;73.11
60099;BME280;62818;49.394;8.686;2023-04-05T04:49:56;100935.44;;;1.25;74.09
60099;BME280;62818;49.394;8.686;2023-04-05T04:50:58;100939.41;;;1.93;72.39
60099;BME280;62818;49.394;8.686;2023-04-05T04:52:01;100939.84;;;1.75;70.94
60099;BME280;62818;49.394;8.686;2023-04-05T04:53:02;100938.47;;;1.57;71.80
60099;BME280;62818;49.394;8.686;2023-04-05T04:54:02;100943.47;;;1.22;73.01
60099;BME280;62818;49.394;8.686;2023-04-05T04:55:03;100939.81;;;1.24;73.80
60099;BME280;62818;49.394;8.686;2023-04-05T04:56:05;100935.13;;;1.80;71.98
60099;BME280;62818;49.394;8.686;2023-04-05T04:57:09;100942.69;;;2.20;70.26
60099;BME280;62818;49.394;8.686;2023-04-05T04:58:11;100942.50;;;2.11;69.15
60099;BME280;62818;49.394;8.686;2023-04-05T04:59:12;100939.19;;;1.84;69.83
60099;BME280;62818;49.394;8.686;2023-04-05T05:00:13;100936.97;;;2.03;70.00
60099;BME280;62818;49.394;8.686;2023-04-05T05:01:14;100942.81;;;2.43;69.33
60099;BME280;62818;49.394;8.686;2023-04-05T05:02:15;100944.09;;;2.01;69.06
60099;BME280;62818;49.394;8.686;2023-04-05T05:03:15;100937.13;;;1.64;71.42
60099;BME280;62818;49.394;8.686;2023-04-05T05:04:16;100940.88;;;1.60;72.13
60099;BME280;62818;49.394;8.686;2023-04-05T05:05:17;100947.13;;;1.70;72.00
60099;BME280;62818;49.394;8.686;2023-04-05T05:06:21;100948.72;;;1.72;71.52
60099;BME280;62818;49.394;8.686;2023-04-05T05:07:22;100944.78;;;1.54;72.65
60099;BME280;62818;49.394;8.686;2023-04-05T05:08:22;100951.44;;;1.71;72.50
60099;BME280;62818;49.394;8.686;2023-04-05T05:09:23;100948.59;;;1.61;72.85
60099;BME280;62818;49.394;8.686;2023-04-05T05:10:23;100945.69;;;1.53;73.08
60099;BME280;62818;49.394;8.686;2023-04-05T05:11:24;100950.91;;;1.53;73.27
60099;BME280;62818;49.394;8.686;2023-04-05T05:12:24;100949.03;;;1.80;72.90
60099;BME280;62818;49.394;8.686;2023-04-05T05:13:25;100951.31;;;1.34;73.99
60099;BME280;62818;49.394;8.686;2023-04-05T05:14:26;100941.88;;;1.19;74.96
60099;BME280;62818;49.394;8.686;2023-04-05T05:15:26;100944.44;;;1.71;74.11
60099;BME280;62818;49.394;8.686;2023-04-05T05:16:27;100945.97;;;1.99;72.96
60099;BME280;62818;49.394;8.686;2023-04-05T05:17:28;100945.28;;;1.84;71.67
60099;BME280;62818;49.394;8.686;2023-04-05T05:18:28;100950.06;;;1.52;72.50
60099;BME280;62818;49.394;8.686;2023-04-05T05:19:29;100949.84;;;1.30;74.01
60099;BME280;62818;49.394;8.686;2023-04-05T05:20:30;100951.22;;;1.36;75.47
60099;BME280;62818;49.394;8.686;2023-04-05T05:21:31;100945.91;;;1.63;75.30
60099;BME280;62818;49.394;8.686;2023-04-05T05:22:32;100942.50;;;1.98;73.57
60099;BME280;62818;49.394;8.686;2023-04-05T05:23:32;100950.00;;;2.28;72.57
60099;BME280;62818;49.394;8.686;2023-04-05T05:24:32;100944.31;;;2.47;71.67
60099;BME280;62818;49.394;8.686;2023-04-05T05:25:33;100950.13;;;2.14;72.54
60099;BME280;62818;49.394;8.686;2023-04-05T05:26:34;100950.47;;;1.97;73.15
60099;BME280;62818;49.394;8.686;2023-04-05T05:27:35;100951.94;;;2.01;72.95
60099;BME280;62818;49.394;8.686;2023-04-05T05:28:36;100949.84;;;1.81;73.02
60099;BME280;62818;49.394;8.686;2023-04-05T05:29:37;100955.75;;;1.72;73.55
60099;BME280;62818;49.394;8.686;2023-04-05T05:30:38;100953.22;;;1.58;74.73
60099;BME280;62818;49.394;8.686;2023-04-05T05:31:38;100957.09;;;1.65;75.24
60099;BME280;62818;49.394;8.686;2023-04-05T05:32:39;100956.16;;;1.40;75.26
60099;BME280;62818;49.394;8.686;2023-04-05T05:33:40;100954.88;;;1.46;75.82
60099;BME280;62818;49.394;8.686;2023-04-05T05:34:41;100954.38;;;1.54;75.65
60099;BME280;62818;49.394;8.686;2023-04-05T05:35:48;100949.44;;;1.87;75.03
60099;BME280;62818;49.394;8.686;2023-04-05T05:36:49;100956.00;;;2.05;73.67